Terminal Aerodrome Forecast
Issued by NWS

Home | Current Version | Previous Version | Text Only | Print | Product List | Glossary On
Versions: 1 2 3 4 5 6 7 8 9 10 11 12 13
000
FTUS44 KLIX 011100
TAFGPT
TAF
KGPT 011139Z 0112/0212 13005KT P6SM SCT022 BKN250
     FM011400 15008KT P6SM SCT030 BKN250
     FM011800 15012KT P6SM VCTS BKN035CB
     FM020000 15009KT P6SM BKN250
     FM020300 15008KT P6SM SCT025 BKN250=

USA.gov is the U.S. government's official web portal to all federal, state and local government web resources and services.